sensor_id;sensor_type;location;lat;lon;timestamp;P1;durP1;ratioP1;P2;durP2;ratioP2
56927;SDS011;60850;52.502;13.426;2022-10-31T00:00:04;42.60;;;24.85;;
56927;SDS011;60850;52.502;13.426;2022-10-31T00:02:53;40.33;;;23.27;;
56927;SDS011;60850;52.502;13.426;2022-10-31T00:05:20;40.75;;;25.60;;
56927;SDS011;60850;52.502;13.426;2022-10-31T00:07:51;40.05;;;26.02;;
56927;SDS011;60850;52.502;13.426;2022-10-31T00:10:18;42.20;;;25.52;;
56927;SDS011;60850;52.502;13.426;2022-10-31T00:12:45;38.67;;;23.45;;
56927;SDS011;60850;52.502;13.426;2022-10-31T00:15:12;41.35;;;24.13;;
56927;SDS011;60850;52.502;13.426;2022-10-31T00:17:38;40.95;;;25.10;;
56927;SDS011;60850;52.502;13.426;2022-10-31T00:20:06;44.88;;;25.33;;
56927;SDS011;60850;52.502;13.426;2022-10-31T00:22:33;43.55;;;25.60;;
56927;SDS011;60850;52.502;13.426;2022-10-31T00:25:02;51.83;;;28.42;;
56927;SDS011;60850;52.502;13.426;2022-10-31T00:27:29;53.83;;;29.02;;
56927;SDS011;60850;52.502;13.426;2022-10-31T00:29:56;44.75;;;27.65;;
56927;SDS011;60850;52.502;13.426;2022-10-31T00:32:23;49.10;;;26.23;;
56927;SDS011;60850;52.502;13.426;2022-10-31T00:34:49;41.72;;;24.45;;
56927;SDS011;60850;52.502;13.426;2022-10-31T00:37:16;45.95;;;26.65;;
56927;SDS011;60850;52.502;13.426;2022-10-31T00:39:43;45.72;;;27.17;;
56927;SDS011;60850;52.502;13.426;2022-10-31T00:42:12;38.85;;;23.35;;
56927;SDS011;60850;52.502;13.426;2022-10-31T00:44:39;36.97;;;22.77;;
56927;SDS011;60850;52.502;13.426;2022-10-31T00:47:05;38.30;;;22.30;;
56927;SDS011;60850;52.502;13.426;2022-10-31T00:49:32;36.42;;;20.02;;
56927;SDS011;60850;52.502;13.426;2022-10-31T00:51:59;35.45;;;21.20;;
56927;SDS011;60850;52.502;13.426;2022-10-31T00:54:26;35.22;;;19.42;;
56927;SDS011;60850;52.502;13.426;2022-10-31T00:56:53;38.42;;;20.23;;
56927;SDS011;60850;52.502;13.426;2022-10-31T00:59:21;33.08;;;18.98;;
56927;SDS011;60850;52.502;13.426;2022-10-31T01:01:48;32.90;;;19.63;;
56927;SDS011;60850;52.502;13.426;2022-10-31T01:04:15;38.75;;;19.08;;
56927;SDS011;60850;52.502;13.426;2022-10-31T01:06:41;31.92;;;18.90;;
56927;SDS011;60850;52.502;13.426;2022-10-31T01:09:08;39.15;;;19.08;;
56927;SDS011;60850;52.502;13.426;2022-10-31T01:11:35;30.45;;;17.70;;
56927;SDS011;60850;52.502;13.426;2022-10-31T01:14:02;30.65;;;17.05;;
56927;SDS011;60850;52.502;13.426;2022-10-31T01:16:30;33.83;;;18.20;;
56927;SDS011;60850;52.502;13.426;2022-10-31T01:18:57;29.17;;;17.75;;
56927;SDS011;60850;52.502;13.426;2022-10-31T01:21:25;30.38;;;17.95;;
56927;SDS011;60850;52.502;13.426;2022-10-31T01:23:53;24.58;;;16.05;;
56927;SDS011;60850;52.502;13.426;2022-10-31T01:26:21;31.92;;;18.33;;
56927;SDS011;60850;52.502;13.426;2022-10-31T01:28:50;31.65;;;17.00;;
56927;SDS011;60850;52.502;13.426;2022-10-31T01:31:20;31.27;;;17.50;;
56927;SDS011;60850;52.502;13.426;2022-10-31T01:33:50;30.60;;;17.52;;
56927;SDS011;60850;52.502;13.426;2022-10-31T01:36:18;32.75;;;17.52;;
56927;SDS011;60850;52.502;13.426;2022-10-31T01:38:47;30.13;;;18.40;;
56927;SDS011;60850;52.502;13.426;2022-10-31T01:41:17;31.20;;;17.13;;
56927;SDS011;60850;52.502;13.426;2022-10-31T01:43:46;25.80;;;17.45;;
56927;SDS011;60850;52.502;13.426;2022-10-31T01:46:15;27.10;;;18.23;;
56927;SDS011;60850;52.502;13.426;2022-10-31T01:48:46;29.17;;;17.77;;
56927;SDS011;60850;52.502;13.426;2022-10-31T01:51:15;28.70;;;18.23;;
56927;SDS011;60850;52.502;13.426;2022-10-31T01:53:46;34.28;;;18.58;;
56927;SDS011;60850;52.502;13.426;2022-10-31T01:56:14;27.75;;;17.52;;
56927;SDS011;60850;52.502;13.426;2022-10-31T01:58:43;33.28;;;17.60;;
56927;SDS011;60850;52.502;13.426;2022-10-31T02:01:12;29.33;;;16.98;;
56927;SDS011;60850;52.502;13.426;2022-10-31T02:03:41;30.50;;;17.55;;
56927;SDS011;60850;52.502;13.426;2022-10-31T02:06:10;30.17;;;17.27;;
56927;SDS011;60850;52.502;13.426;2022-10-31T02:08:46;32.67;;;18.30;;
56927;SDS011;60850;52.502;13.426;2022-10-31T02:11:12;33.65;;;17.60;;
56927;SDS011;60850;52.502;13.426;2022-10-31T02:13:40;31.50;;;17.50;;
56927;SDS011;60850;52.502;13.426;2022-10-31T02:16:08;31.02;;;16.92;;
56927;SDS011;60850;52.502;13.426;2022-10-31T02:18:36;29.23;;;15.35;;
56927;SDS011;60850;52.502;13.426;2022-10-31T02:21:05;30.90;;;16.67;;
56927;SDS011;60850;52.502;13.426;2022-10-31T02:26:56;27.35;;;15.07;;
56927;SDS011;60850;52.502;13.426;2022-10-31T02:32:27;28.17;;;15.85;;
56927;SDS011;60850;52.502;13.426;2022-10-31T02:35:00;30.60;;;16.77;;
56927;SDS011;60850;52.502;13.426;2022-10-31T02:37:35;26.05;;;16.35;;
56927;SDS011;60850;52.502;13.426;2022-10-31T02:40:05;27.35;;;16.00;;
56927;SDS011;60850;52.502;13.426;2022-10-31T02:42:42;30.35;;;16.52;;
56927;SDS011;60850;52.502;13.426;2022-10-31T02:45:17;25.55;;;15.13;;
56927;SDS011;60850;52.502;13.426;2022-10-31T02:47:51;26.65;;;15.40;;
56927;SDS011;60850;52.502;13.426;2022-10-31T02:50:23;25.98;;;15.40;;
56927;SDS011;60850;52.502;13.426;2022-10-31T02:52:53;27.52;;;16.13;;
56927;SDS011;60850;52.502;13.426;2022-10-31T02:58:11;28.58;;;15.20;;
56927;SDS011;60850;52.502;13.426;2022-10-31T03:00:41;28.20;;;15.90;;
56927;SDS011;60850;52.502;13.426;2022-10-31T03:03:19;27.52;;;15.40;;
56927;SDS011;60850;52.502;13.426;2022-10-31T03:05:54;26.55;;;15.32;;
56927;SDS011;60850;52.502;13.426;2022-10-31T03:08:28;25.63;;;14.40;;
56927;SDS011;60850;52.502;13.426;2022-10-31T03:11:01;29.90;;;15.35;;
56927;SDS011;60850;52.502;13.426;2022-10-31T03:13:32;26.42;;;15.63;;
56927;SDS011;60850;52.502;13.426;2022-10-31T03:16:04;24.20;;;13.88;;
56927;SDS011;60850;52.502;13.426;2022-10-31T03:18:39;23.65;;;14.13;;
56927;SDS011;60850;52.502;13.426;2022-10-31T03:21:11;27.15;;;14.98;;
56927;SDS011;60850;52.502;13.426;2022-10-31T03:23:40;32.42;;;15.23;;
56927;SDS011;60850;52.502;13.426;2022-10-31T03:26:10;28.23;;;14.73;;
56927;SDS011;60850;52.502;13.426;2022-10-31T03:28:41;26.13;;;14.80;;
56927;SDS011;60850;52.502;13.426;2022-10-31T03:31:12;27.08;;;13.90;;
56927;SDS011;60850;52.502;13.426;2022-10-31T03:33:45;23.83;;;13.80;;
56927;SDS011;60850;52.502;13.426;2022-10-31T03:36:14;28.25;;;14.60;;
56927;SDS011;60850;52.502;13.426;2022-10-31T03:38:43;25.83;;;13.38;;
56927;SDS011;60850;52.502;13.426;2022-10-31T03:41:13;23.10;;;13.48;;
56927;SDS011;60850;52.502;13.426;2022-10-31T03:43:46;23.00;;;13.48;;
56927;SDS011;60850;52.502;13.426;2022-10-31T03:46:19;28.23;;;14.00;;
56927;SDS011;60850;52.502;13.426;2022-10-31T03:48:47;23.10;;;13.00;;
56927;SDS011;60850;52.502;13.426;2022-10-31T03:51:15;23.35;;;13.57;;
56927;SDS011;60850;52.502;13.426;2022-10-31T03:53:50;22.42;;;13.60;;
56927;SDS011;60850;52.502;13.426;2022-10-31T03:56:22;25.38;;;12.77;;
56927;SDS011;60850;52.502;13.426;2022-10-31T03:58:56;20.48;;;13.25;;
56927;SDS011;60850;52.502;13.426;2022-10-31T04:01:26;27.13;;;13.18;;
56927;SDS011;60850;52.502;13.426;2022-10-31T04:03:59;19.67;;;13.32;;
56927;SDS011;60850;52.502;13.426;2022-10-31T04:06:28;25.77;;;13.93;;
56927;SDS011;60850;52.502;13.426;2022-10-31T04:08:58;21.45;;;13.30;;
56927;SDS011;60850;52.502;13.426;2022-10-31T04:11:30;27.35;;;15.00;;
56927;SDS011;60850;52.502;13.426;2022-10-31T04:14:01;24.23;;;13.40;;
56927;SDS011;60850;52.502;13.426;2022-10-31T04:16:30;22.60;;;13.07;;
56927;SDS011;60850;52.502;13.426;2022-10-31T04:18:58;24.45;;;13.68;;
56927;SDS011;60850;52.502;13.426;2022-10-31T04:21:29;28.30;;;12.60;;
56927;SDS011;60850;52.502;13.426;2022-10-31T04:23:56;27.17;;;13.13;;
56927;SDS011;60850;52.502;13.426;2022-10-31T04:26:23;24.02;;;12.95;;
56927;SDS011;60850;52.502;13.426;2022-10-31T04:28:50;22.17;;;13.30;;
56927;SDS011;60850;52.502;13.426;2022-10-31T04:31:17;23.42;;;13.35;;
56927;SDS011;60850;52.502;13.426;2022-10-31T04:33:44;21.55;;;12.57;;
56927;SDS011;60850;52.502;13.426;2022-10-31T04:36:13;25.58;;;12.05;;
56927;SDS011;60850;52.502;13.426;2022-10-31T04:38:40;23.85;;;13.07;;
56927;SDS011;60850;52.502;13.426;2022-10-31T04:41:07;21.83;;;12.55;;
56927;SDS011;60850;52.502;13.426;2022-10-31T04:43:33;25.38;;;12.68;;
56927;SDS011;60850;52.502;13.426;2022-10-31T04:46:00;18.15;;;11.57;;
56927;SDS011;60850;52.502;13.426;2022-10-31T04:48:27;24.20;;;12.88;;
56927;SDS011;60850;52.502;13.426;2022-10-31T04:50:58;24.50;;;12.50;;
56927;SDS011;60850;52.502;13.426;2022-10-31T04:53:27;22.92;;;12.90;;
56927;SDS011;60850;52.502;13.426;2022-10-31T04:55:54;23.05;;;12.57;;
56927;SDS011;60850;52.502;13.426;2022-10-31T04:58:20;24.38;;;12.73;;
56927;SDS011;60850;52.502;13.426;2022-10-31T05:00:50;19.95;;;12.75;;
56927;SDS011;60850;52.502;13.426;2022-10-31T05:03:18;23.85;;;12.65;;
56927;SDS011;60850;52.502;13.426;2022-10-31T05:05:44;22.90;;;11.65;;
56927;SDS011;60850;52.502;13.426;2022-10-31T05:08:11;21.13;;;11.63;;
56927;SDS011;60850;52.502;13.426;2022-10-31T05:10:40;22.95;;;12.75;;
56927;SDS011;60850;52.502;13.426;2022-10-31T05:13:07;25.33;;;13.20;;
56927;SDS011;60850;52.502;13.426;2022-10-31T05:15:34;24.25;;;11.85;;
56927;SDS011;60850;52.502;13.426;2022-10-31T05:18:00;25.00;;;13.02;;
56927;SDS011;60850;52.502;13.426;2022-10-31T05:20:28;21.00;;;11.70;;
56927;SDS011;60850;52.502;13.426;2022-10-31T05:22:56;27.70;;;13.52;;
56927;SDS011;60850;52.502;13.426;2022-10-31T05:25:25;21.27;;;11.25;;
56927;SDS011;60850;52.502;13.426;2022-10-31T05:27:55;26.35;;;12.82;;
56927;SDS011;60850;52.502;13.426;2022-10-31T05:30:22;23.25;;;12.63;;
56927;SDS011;60850;52.502;13.426;2022-10-31T05:32:52;23.27;;;12.32;;
56927;SDS011;60850;52.502;13.426;2022-10-31T05:35:19;26.02;;;12.68;;
56927;SDS011;60850;52.502;13.426;2022-10-31T05:37:47;35.50;;;13.18;;
56927;SDS011;60850;52.502;13.426;2022-10-31T05:40:14;21.05;;;11.98;;
56927;SDS011;60850;52.502;13.426;2022-10-31T05:42:43;24.73;;;12.55;;
56927;SDS011;60850;52.502;13.426;2022-10-31T05:45:13;24.60;;;12.15;;
56927;SDS011;60850;52.502;13.426;2022-10-31T05:47:42;22.23;;;12.60;;
56927;SDS011;60850;52.502;13.426;2022-10-31T05:50:15;23.52;;;12.45;;
56927;SDS011;60850;52.502;13.426;2022-10-31T05:52:42;21.25;;;12.65;;
56927;SDS011;60850;52.502;13.426;2022-10-31T05:55:09;22.50;;;12.95;;
56927;SDS011;60850;52.502;13.426;2022-10-31T05:57:36;21.23;;;12.70;;
56927;SDS011;60850;52.502;13.426;2022-10-31T06:00:03;23.55;;;12.23;;
56927;SDS011;60850;52.502;13.426;2022-10-31T06:02:33;31.50;;;14.95;;
56927;SDS011;60850;52.502;13.426;2022-10-31T06:05:00;30.10;;;15.40;;
56927;SDS011;60850;52.502;13.426;2022-10-31T06:07:27;25.33;;;12.98;;
56927;SDS011;60850;52.502;13.426;2022-10-31T06:09:59;25.52;;;12.95;;
56927;SDS011;60850;52.502;13.426;2022-10-31T06:12:27;22.63;;;13.07;;
56927;SDS011;60850;52.502;13.426;2022-10-31T06:14:53;27.73;;;13.65;;
56927;SDS011;60850;52.502;13.426;2022-10-31T06:17:20;28.92;;;13.02;;
56927;SDS011;60850;52.502;13.426;2022-10-31T06:19:48;23.85;;;12.68;;
56927;SDS011;60850;52.502;13.426;2022-10-31T06:22:15;24.05;;;12.85;;
56927;SDS011;60850;52.502;13.426;2022-10-31T06:24:42;26.27;;;12.93;;
56927;SDS011;60850;52.502;13.426;2022-10-31T06:27:09;25.50;;;13.50;;
56927;SDS011;60850;52.502;13.426;2022-10-31T06:29:36;24.42;;;12.88;;
56927;SDS011;60850;52.502;13.426;2022-10-31T06:32:03;25.15;;;13.15;;
56927;SDS011;60850;52.502;13.426;2022-10-31T06:34:30;24.15;;;13.38;;
56927;SDS011;60850;52.502;13.426;2022-10-31T06:36:58;24.58;;;12.98;;
56927;SDS011;60850;52.502;13.426;2022-10-31T06:39:25;21.67;;;13.02;;
56927;SDS011;60850;52.502;13.426;2022-10-31T06:41:52;21.63;;;12.77;;
56927;SDS011;60850;52.502;13.426;2022-10-31T06:44:19;21.58;;;12.70;;
56927;SDS011;60850;52.502;13.426;2022-10-31T06:46:46;24.95;;;12.38;;
56927;SDS011;60850;52.502;13.426;2022-10-31T06:49:14;26.40;;;12.43;;
56927;SDS011;60850;52.502;13.426;2022-10-31T06:51:41;23.67;;;12.00;;
56927;SDS011;60850;52.502;13.426;2022-10-31T06:54:09;26.35;;;11.90;;
56927;SDS011;60850;52.502;13.426;2022-10-31T06:56:36;18.42;;;11.60;;
56927;SDS011;60850;52.502;13.426;2022-10-31T06:59:03;21.25;;;11.40;;
56927;SDS011;60850;52.502;13.426;2022-10-31T07:01:30;22.23;;;12.73;;
56927;SDS011;60850;52.502;13.426;2022-10-31T07:03:57;22.13;;;12.23;;
56927;SDS011;60850;52.502;13.426;2022-10-31T07:06:24;25.83;;;12.13;;
56927;SDS011;60850;52.502;13.426;2022-10-31T07:08:51;24.60;;;12.15;;
56927;SDS011;60850;52.502;13.426;2022-10-31T07:11:19;22.10;;;11.93;;
56927;SDS011;60850;52.502;13.426;2022-10-31T07:13:46;22.00;;;11.75;;
56927;SDS011;60850;52.502;13.426;2022-10-31T07:16:13;25.90;;;11.57;;
56927;SDS011;60850;52.502;13.426;2022-10-31T07:18:40;20.80;;;12.32;;
56927;SDS011;60850;52.502;13.426;2022-10-31T07:21:07;24.42;;;12.25;;
56927;SDS011;60850;52.502;13.426;2022-10-31T07:23:33;21.92;;;11.68;;
56927;SDS011;60850;52.502;13.426;2022-10-31T07:26:00;23.52;;;12.73;;
56927;SDS011;60850;52.502;13.426;2022-10-31T07:28:29;25.83;;;12.18;;
56927;SDS011;60850;52.502;13.426;2022-10-31T07:30:56;20.80;;;11.95;;
56927;SDS011;60850;52.502;13.426;2022-10-31T07:33:24;25.25;;;11.98;;
56927;SDS011;60850;52.502;13.426;2022-10-31T07:35:52;20.08;;;11.43;;
56927;SDS011;60850;52.502;13.426;2022-10-31T07:38:19;20.95;;;10.15;;
56927;SDS011;60850;52.502;13.426;2022-10-31T07:40:49;21.15;;;10.43;;
56927;SDS011;60850;52.502;13.426;2022-10-31T07:43:17;24.60;;;11.95;;
56927;SDS011;60850;52.502;13.426;2022-10-31T07:45:45;20.42;;;11.80;;
56927;SDS011;60850;52.502;13.426;2022-10-31T07:48:16;24.77;;;13.77;;
56927;SDS011;60850;52.502;13.426;2022-10-31T07:50:43;27.48;;;12.98;;
56927;SDS011;60850;52.502;13.426;2022-10-31T07:53:13;23.80;;;10.63;;
56927;SDS011;60850;52.502;13.426;2022-10-31T07:55:45;21.25;;;11.48;;
56927;SDS011;60850;52.502;13.426;2022-10-31T07:58:13;21.10;;;10.80;;
56927;SDS011;60850;52.502;13.426;2022-10-31T08:00:41;23.48;;;11.80;;
56927;SDS011;60850;52.502;13.426;2022-10-31T08:03:11;20.65;;;10.85;;
56927;SDS011;60850;52.502;13.426;2022-10-31T08:05:40;22.50;;;11.70;;
56927;SDS011;60850;52.502;13.426;2022-10-31T08:08:07;21.02;;;11.63;;
56927;SDS011;60850;52.502;13.426;2022-10-31T08:10:35;25.45;;;11.68;;
56927;SDS011;60850;52.502;13.426;2022-10-31T08:13:03;21.52;;;11.43;;
56927;SDS011;60850;52.502;13.426;2022-10-31T08:15:32;27.50;;;14.02;;
56927;SDS011;60850;52.502;13.426;2022-10-31T08:18:02;22.38;;;12.23;;
56927;SDS011;60850;52.502;13.426;2022-10-31T08:20:30;21.40;;;12.27;;
56927;SDS011;60850;52.502;13.426;2022-10-31T08:22:58;23.60;;;12.38;;
56927;SDS011;60850;52.502;13.426;2022-10-31T08:25:26;22.45;;;11.98;;
56927;SDS011;60850;52.502;13.426;2022-10-31T08:27:55;21.50;;;11.68;;
56927;SDS011;60850;52.502;13.426;2022-10-31T08:30:23;23.45;;;12.50;;
56927;SDS011;60850;52.502;13.426;2022-10-31T08:32:57;18.42;;;12.30;;
56927;SDS011;60850;52.502;13.426;2022-10-31T08:35:25;33.25;;;14.05;;
56927;SDS011;60850;52.502;13.426;2022-10-31T08:37:53;25.23;;;13.38;;
56927;SDS011;60850;52.502;13.426;2022-10-31T08:40:21;20.05;;;13.75;;
56927;SDS011;60850;52.502;13.426;2022-10-31T08:42:54;25.48;;;14.65;;
56927;SDS011;60850;52.502;13.426;2022-10-31T08:45:22;30.13;;;15.45;;
56927;SDS011;60850;52.502;13.426;2022-10-31T08:47:49;26.88;;;15.27;;
56927;SDS011;60850;52.502;13.426;2022-10-31T08:50:16;23.88;;;14.73;;
56927;SDS011;60850;52.502;13.426;2022-10-31T08:52:43;31.63;;;15.43;;
56927;SDS011;60850;52.502;13.426;2022-10-31T08:55:11;28.48;;;14.48;;
56927;SDS011;60850;52.502;13.426;2022-10-31T08:57:38;25.42;;;13.88;;
56927;SDS011;60850;52.502;13.426;2022-10-31T09:00:06;24.95;;;13.32;;
56927;SDS011;60850;52.502;13.426;2022-10-31T09:02:33;29.27;;;14.27;;
56927;SDS011;60850;52.502;13.426;2022-10-31T09:05:00;25.17;;;14.23;;
56927;SDS011;60850;52.502;13.426;2022-10-31T09:07:27;28.42;;;14.13;;
56927;SDS011;60850;52.502;13.426;2022-10-31T09:09:54;29.58;;;15.27;;
56927;SDS011;60850;52.502;13.426;2022-10-31T09:12:23;25.88;;;14.55;;
56927;SDS011;60850;52.502;13.426;2022-10-31T09:14:50;34.25;;;15.52;;
56927;SDS011;60850;52.502;13.426;2022-10-31T09:17:17;30.80;;;16.40;;
56927;SDS011;60850;52.502;13.426;2022-10-31T09:19:44;27.60;;;15.90;;
56927;SDS011;60850;52.502;13.426;2022-10-31T09:22:10;36.53;;;17.98;;
56927;SDS011;60850;52.502;13.426;2022-10-31T09:24:37;33.88;;;18.13;;
56927;SDS011;60850;52.502;13.426;2022-10-31T09:27:04;29.70;;;18.15;;
56927;SDS011;60850;52.502;13.426;2022-10-31T09:29:33;34.95;;;19.23;;
56927;SDS011;60850;52.502;13.426;2022-10-31T09:32:00;32.03;;;17.98;;
56927;SDS011;60850;52.502;13.426;2022-10-31T09:34:27;32.35;;;18.08;;
56927;SDS011;60850;52.502;13.426;2022-10-31T09:36:53;32.67;;;19.45;;
56927;SDS011;60850;52.502;13.426;2022-10-31T09:39:20;33.60;;;18.73;;
56927;SDS011;60850;52.502;13.426;2022-10-31T09:41:55;35.58;;;17.88;;
56927;SDS011;60850;52.502;13.426;2022-10-31T09:44:36;37.30;;;19.80;;
56927;SDS011;60850;52.502;13.426;2022-10-31T09:47:12;37.00;;;20.13;;
56927;SDS011;60850;52.502;13.426;2022-10-31T09:49:52;39.40;;;19.13;;
56927;SDS011;60850;52.502;13.426;2022-10-31T09:52:29;32.22;;;18.08;;
56927;SDS011;60850;52.502;13.426;2022-10-31T09:54:58;30.98;;;16.98;;
56927;SDS011;60850;52.502;13.426;2022-10-31T09:57:32;34.17;;;17.17;;
56927;SDS011;60850;52.502;13.426;2022-10-31T10:00:04;32.67;;;17.15;;
56927;SDS011;60850;52.502;13.426;2022-10-31T10:02:36;35.03;;;18.45;;
56927;SDS011;60850;52.502;13.426;2022-10-31T10:05:05;35.33;;;17.73;;
56927;SDS011;60850;52.502;13.426;2022-10-31T10:07:40;30.67;;;14.98;;
56927;SDS011;60850;52.502;13.426;2022-10-31T10:10:14;35.40;;;16.17;;
56927;SDS011;60850;52.502;13.426;2022-10-31T10:12:47;29.25;;;16.00;;
56927;SDS011;60850;52.502;13.426;2022-10-31T10:15:39;31.38;;;16.58;;
56927;SDS011;60850;52.502;13.426;2022-10-31T10:18:24;33.70;;;17.80;;
56927;SDS011;60850;52.502;13.426;2022-10-31T10:21:02;37.00;;;17.95;;
56927;SDS011;60850;52.502;13.426;2022-10-31T10:23:41;32.38;;;17.00;;
56927;SDS011;60850;52.502;13.426;2022-10-31T10:26:17;37.88;;;18.95;;
56927;SDS011;60850;52.502;13.426;2022-10-31T10:28:46;30.05;;;17.88;;
56927;SDS011;60850;52.502;13.426;2022-10-31T10:31:18;41.17;;;19.15;;
56927;SDS011;60850;52.502;13.426;2022-10-31T10:33:56;34.70;;;19.08;;
56927;SDS011;60850;52.502;13.426;2022-10-31T10:36:29;34.72;;;19.20;;
56927;SDS011;60850;52.502;13.426;2022-10-31T10:39:02;40.05;;;19.58;;
56927;SDS011;60850;52.502;13.426;2022-10-31T10:41:35;35.58;;;19.98;;
56927;SDS011;60850;52.502;13.426;2022-10-31T10:44:04;44.85;;;19.00;;
56927;SDS011;60850;52.502;13.426;2022-10-31T10:46:39;47.70;;;21.48;;
56927;SDS011;60850;52.502;13.426;2022-10-31T10:49:28;33.75;;;19.92;;
56927;SDS011;60850;52.502;13.426;2022-10-31T10:51:59;39.35;;;17.73;;
56927;SDS011;60850;52.502;13.426;2022-10-31T10:54:41;37.05;;;18.77;;
56927;SDS011;60850;52.502;13.426;2022-10-31T10:57:17;41.42;;;17.73;;
56927;SDS011;60850;52.502;13.426;2022-10-31T10:59:52;44.40;;;20.63;;
56927;SDS011;60850;52.502;13.426;2022-10-31T11:02:22;36.85;;;18.95;;
56927;SDS011;60850;52.502;13.426;2022-10-31T11:04:50;35.95;;;20.02;;
56927;SDS011;60850;52.502;13.426;2022-10-31T11:07:20;33.88;;;17.80;;
56927;SDS011;60850;52.502;13.426;2022-10-31T11:09:47;35.10;;;17.08;;
56927;SDS011;60850;52.502;13.426;2022-10-31T11:12:19;35.70;;;18.20;;
56927;SDS011;60850;52.502;13.426;2022-10-31T11:14:49;34.85;;;17.88;;
56927;SDS011;60850;52.502;13.426;2022-10-31T11:17:25;33.30;;;17.65;;
56927;SDS011;60850;52.502;13.426;2022-10-31T11:20:01;32.38;;;18.27;;
56927;SDS011;60850;52.502;13.426;2022-10-31T11:22:30;32.95;;;18.27;;
56927;SDS011;60850;52.502;13.426;2022-10-31T11:24:57;40.42;;;19.42;;
56927;SDS011;60850;52.502;13.426;2022-10-31T11:27:24;39.45;;;19.92;;
56927;SDS011;60850;52.502;13.426;2022-10-31T11:29:52;38.45;;;20.75;;
56927;SDS011;60850;52.502;13.426;2022-10-31T11:32:20;39.58;;;19.67;;
56927;SDS011;60850;52.502;13.426;2022-10-31T11:34:51;36.45;;;20.08;;
56927;SDS011;60850;52.502;13.426;2022-10-31T11:37:21;39.42;;;20.55;;
56927;SDS011;60850;52.502;13.426;2022-10-31T11:39:50;32.65;;;19.77;;
56927;SDS011;60850;52.502;13.426;2022-10-31T11:42:20;43.72;;;20.27;;
56927;SDS011;60850;52.502;13.426;2022-10-31T11:44:49;39.35;;;20.25;;
56927;SDS011;60850;52.502;13.426;2022-10-31T11:47:26;38.97;;;20.75;;
56927;SDS011;60850;52.502;13.426;2022-10-31T11:49:59;45.08;;;21.88;;
56927;SDS011;60850;52.502;13.426;2022-10-31T11:52:29;39.40;;;17.98;;
56927;SDS011;60850;52.502;13.426;2022-10-31T11:54:58;37.50;;;18.23;;
56927;SDS011;60850;52.502;13.426;2022-10-31T11:57:28;41.65;;;19.75;;
56927;SDS011;60850;52.502;13.426;2022-10-31T11:59:57;40.67;;;19.77;;
56927;SDS011;60850;52.502;13.426;2022-10-31T12:02:26;39.60;;;21.48;;
56927;SDS011;60850;52.502;13.426;2022-10-31T12:04:56;33.10;;;19.40;;
56927;SDS011;60850;52.502;13.426;2022-10-31T12:07:31;38.47;;;20.27;;
56927;SDS011;60850;52.502;13.426;2022-10-31T12:09:57;39.22;;;21.13;;
56927;SDS011;60850;52.502;13.426;2022-10-31T12:15:21;40.85;;;21.25;;
56927;SDS011;60850;52.502;13.426;2022-10-31T12:17:58;44.80;;;22.40;;
56927;SDS011;60850;52.502;13.426;2022-10-31T12:23:19;37.28;;;20.90;;
56927;SDS011;60850;52.502;13.426;2022-10-31T12:25:55;45.85;;;21.40;;
56927;SDS011;60850;52.502;13.426;2022-10-31T12:31:36;42.25;;;22.77;;
56927;SDS011;60850;52.502;13.426;2022-10-31T12:34:21;40.15;;;21.58;;
56927;SDS011;60850;52.502;13.426;2022-10-31T12:37:00;37.22;;;21.35;;
56927;SDS011;60850;52.502;13.426;2022-10-31T12:39:36;39.67;;;21.17;;
56927;SDS011;60850;52.502;13.426;2022-10-31T12:42:13;42.35;;;21.30;;
56927;SDS011;60850;52.502;13.426;2022-10-31T12:44:51;40.00;;;21.35;;
56927;SDS011;60850;52.502;13.426;2022-10-31T12:47:36;34.28;;;21.27;;
56927;SDS011;60850;52.502;13.426;2022-10-31T12:50:16;38.47;;;20.35;;
56927;SDS011;60850;52.502;13.426;2022-10-31T12:52:56;37.17;;;20.92;;
56927;SDS011;60850;52.502;13.426;2022-10-31T12:55:35;40.10;;;20.60;;
56927;SDS011;60850;52.502;13.426;2022-10-31T12:58:10;36.67;;;21.30;;
56927;SDS011;60850;52.502;13.426;2022-10-31T13:00:44;40.33;;;21.95;;
56927;SDS011;60850;52.502;13.426;2022-10-31T13:03:18;45.60;;;23.42;;
56927;SDS011;60850;52.502;13.426;2022-10-31T13:05:51;42.10;;;20.75;;
56927;SDS011;60850;52.502;13.426;2022-10-31T13:08:26;39.90;;;20.80;;
56927;SDS011;60850;52.502;13.426;2022-10-31T13:11:00;48.03;;;23.95;;
56927;SDS011;60850;52.502;13.426;2022-10-31T13:13:33;44.13;;;22.83;;
56927;SDS011;60850;52.502;13.426;2022-10-31T13:16:07;47.63;;;23.75;;
56927;SDS011;60850;52.502;13.426;2022-10-31T13:18:40;49.22;;;23.58;;
56927;SDS011;60850;52.502;13.426;2022-10-31T13:21:13;40.40;;;21.50;;
56927;SDS011;60850;52.502;13.426;2022-10-31T13:23:47;48.50;;;23.48;;
56927;SDS011;60850;52.502;13.426;2022-10-31T13:26:18;46.42;;;23.38;;
56927;SDS011;60850;52.502;13.426;2022-10-31T13:31:19;42.33;;;21.92;;
56927;SDS011;60850;52.502;13.426;2022-10-31T13:33:46;44.53;;;21.70;;
56927;SDS011;60850;52.502;13.426;2022-10-31T13:36:19;49.47;;;23.10;;
56927;SDS011;60850;52.502;13.426;2022-10-31T13:38:57;45.60;;;21.65;;
56927;SDS011;60850;52.502;13.426;2022-10-31T13:41:38;44.72;;;22.70;;
56927;SDS011;60850;52.502;13.426;2022-10-31T13:44:13;44.63;;;20.55;;
56927;SDS011;60850;52.502;13.426;2022-10-31T13:46:44;41.05;;;20.92;;
56927;SDS011;60850;52.502;13.426;2022-10-31T13:49:39;39.95;;;20.98;;
56927;SDS011;60850;52.502;13.426;2022-10-31T13:52:12;41.42;;;20.13;;
56927;SDS011;60850;52.502;13.426;2022-10-31T13:54:42;34.90;;;18.95;;
56927;SDS011;60850;52.502;13.426;2022-10-31T13:57:18;37.08;;;20.05;;
56927;SDS011;60850;52.502;13.426;2022-10-31T13:59:49;38.08;;;21.17;;
56927;SDS011;60850;52.502;13.426;2022-10-31T14:02:20;35.65;;;18.77;;
56927;SDS011;60850;52.502;13.426;2022-10-31T14:04:52;45.38;;;20.38;;
56927;SDS011;60850;52.502;13.426;2022-10-31T14:07:23;38.22;;;19.85;;
56927;SDS011;60850;52.502;13.426;2022-10-31T14:09:54;46.63;;;22.38;;
56927;SDS011;60850;52.502;13.426;2022-10-31T14:12:25;41.22;;;21.85;;
56927;SDS011;60850;52.502;13.426;2022-10-31T14:14:56;36.08;;;20.73;;
56927;SDS011;60850;52.502;13.426;2022-10-31T14:17:31;36.50;;;19.90;;
56927;SDS011;60850;52.502;13.426;2022-10-31T14:20:22;37.70;;;20.52;;
56927;SDS011;60850;52.502;13.426;2022-10-31T14:23:10;44.97;;;20.70;;
56927;SDS011;60850;52.502;13.426;2022-10-31T14:25:53;39.25;;;19.30;;
56927;SDS011;60850;52.502;13.426;2022-10-31T14:28:21;43.40;;;20.30;;
56927;SDS011;60850;52.502;13.426;2022-10-31T14:30:57;44.17;;;20.92;;
56927;SDS011;60850;52.502;13.426;2022-10-31T14:33:26;39.55;;;21.10;;
56927;SDS011;60850;52.502;13.426;2022-10-31T14:35:56;38.53;;;21.30;;
56927;SDS011;60850;52.502;13.426;2022-10-31T14:38:31;43.53;;;21.45;;
56927;SDS011;60850;52.502;13.426;2022-10-31T14:41:21;42.00;;;20.90;;
56927;SDS011;60850;52.502;13.426;2022-10-31T14:44:13;45.70;;;21.10;;
56927;SDS011;60850;52.502;13.426;2022-10-31T14:46:55;51.00;;;24.38;;